Svitzer Leixoes — CSXW6 — position and weather

sailwx.info

Track history (hours):
 
Tides and Currents Weather Stations Pressure Air Temp Water Temp Dewpoint Dewpoint Depression Visibility Wind Speed Wind Dir Waves Ship Positions

Svitzer Leixoes

Last reported at 2018-Jun-23 09:30 UTC. Time now 2018-Jun-23 09:51 UTC.
Position N 38°42' W 009°10'.

Length 29 m; draft 3.6 m.

Type: Tug. MMSI: 263622000.

Date/timePositionNaut miles runAvg speedWind from/ knotsBaromVisibWave heightAir tempDewpointWater temp
2018-Jun-23 09:30N 38°42' W 009°10'0 0.0
2018-Jun-23 09:00N 38°42' W 009°10'0 0.0
2018-Jun-23 08:30N 38°42' W 009°10'0 0.0
2018-Jun-23 07:59N 38°42' W 009°10'0 0.0
2018-Jun-23 07:29N 38°42' W 009°10'0 0.0
2018-Jun-23 06:59N 38°42' W 009°10'0 0.0
2018-Jun-23 06:29N 38°42' W 009°10'0 0.0
2018-Jun-23 06:00N 38°42' W 009°10'0 0.0
2018-Jun-23 05:30N 38°42' W 009°10'0 0.0
2018-Jun-23 05:00N 38°42' W 009°10'0 0.0
2018-Jun-23 04:30N 38°42' W 009°10'0 0.0
2018-Jun-23 03:58N 38°42' W 009°10'0 0.0
2018-Jun-23 03:28N 38°42' W 009°10'0 0.0
2018-Jun-23 03:00N 38°42' W 009°10'0 0.0
2018-Jun-23 02:30N 38°42' W 009°10'0 0.0
2018-Jun-23 02:00N 38°42' W 009°10'0 0.0
2018-Jun-23 01:30N 38°42' W 009°10'0 0.0
2018-Jun-23 00:58N 38°42' W 009°10'0 0.0
2018-Jun-23 00:29N 38°42' W 009°10'0 0.0
2018-Jun-22 23:58N 38°42' W 009°10'0 0.0
2018-Jun-22 23:30N 38°42' W 009°10'0 0.0
2018-Jun-22 23:00N 38°42' W 009°10'0 0.0
2018-Jun-22 22:30N 38°42' W 009°10'0 0.0
2018-Jun-22 21:54N 38°42' W 009°10'0 0.0
2018-Jun-22 21:29N 38°42' W 009°10'0 0.0
2018-Jun-22 21:00N 38°42' W 009°10'0 0.0
2018-Jun-22 20:30N 38°42' W 009°10'0 0.0
2018-Jun-22 19:58N 38°42' W 009°10'0 0.0
2018-Jun-22 19:30N 38°42' W 009°10'0 0.0
2018-Jun-22 19:00N 38°42' W 009°10'0 0.0
2018-Jun-22 18:29N 38°42' W 009°10'0 0.0
2018-Jun-22 17:59N 38°42' W 009°10'0 0.0
2018-Jun-22 17:30N 38°42' W 009°10'0 0.0
2018-Jun-22 17:00N 38°42' W 009°10'0 0.0
2018-Jun-22 16:30N 38°42' W 009°10'0 0.0
2018-Jun-22 15:59N 38°42' W 009°10'0 0.0
2018-Jun-22 15:30N 38°42' W 009°10'0 0.0
2018-Jun-22 15:00N 38°42' W 009°10'0 0.0
2018-Jun-22 14:29N 38°42' W 009°10'0 0.0
2018-Jun-22 14:00N 38°42' W 009°10'0 0.0
2018-Jun-22 13:29N 38°42' W 009°10'0 0.0
2018-Jun-22 13:00N 38°42' W 009°10'0 0.0
2018-Jun-22 12:30N 38°42' W 009°10'0 0.0
2018-Jun-22 11:58N 38°42' W 009°10'0 0.0
2018-Jun-22 11:24N 38°42' W 009°10'0 0.0
2018-Jun-22 11:00N 38°42' W 009°10'0 0.0
2018-Jun-22 10:29N 38°42' W 009°10'0 0.0
2018-Jun-22 10:00N 38°42' W 009°10'0 0.4
2018-Jun-22 09:28N 38°42' W 009°10'0 0.0
2018-Jun-22 09:00N 38°42' W 009°10'3 5.3
2018-Jun-22 08:30N 38°43' W 009°07'1 1.3
2018-Jun-22 08:00N 38°44' W 009°06'1 2.5
2018-Jun-22 07:30N 38°43' W 009°07'2 4.2
2018-Jun-22 07:00N 38°42' W 009°10'0 0.0
2018-Jun-22 06:27N 38°42' W 009°10'0 0.0
2018-Jun-22 05:57N 38°42' W 009°10'0 0.0
2018-Jun-22 05:28N 38°42' W 009°10'0 0.0
2018-Jun-22 04:58N 38°42' W 009°10'0 0.0
2018-Jun-22 04:30N 38°42' W 009°10'0 0.0
2018-Jun-22 04:00N 38°42' W 009°10'0 0.0
2018-Jun-22 03:30N 38°42' W 009°10'0 0.0
2018-Jun-22 03:00N 38°42' W 009°10'0 0.0
2018-Jun-22 02:27N 38°42' W 009°10'0 0.0
2018-Jun-22 01:51N 38°42' W 009°10'0 0.0
2018-Jun-22 01:26N 38°42' W 009°10'0 0.0
2018-Jun-22 00:59N 38°42' W 009°10'0 0.0
2018-Jun-22 00:30N 38°42' W 009°10'0 0.0
2018-Jun-21 23:58N 38°42' W 009°10'0 0.0
2018-Jun-21 23:30N 38°42' W 009°10'0 0.0
2018-Jun-21 22:59N 38°42' W 009°10'4 6.2
2018-Jun-21 22:25N 38°44' W 009°06'0 0.1
2018-Jun-21 22:01N 38°44' W 009°06'0 0.2
2018-Jun-21 21:30N 38°44' W 009°06'1 2.7
2018-Jun-21 20:59N 38°43' W 009°07'2 4.6
2018-Jun-21 20:30N 38°42' W 009°09'0 0.5
2018-Jun-21 20:00N 38°42' W 009°10'0 0.2
2018-Jun-21 19:29N 38°42' W 009°10'0 0.0
2018-Jun-21 18:59N 38°42' W 009°10'0 0.0
2018-Jun-21 18:28N 38°42' W 009°10'0 0.0
2018-Jun-21 18:00N 38°42' W 009°10'1 2.9
2018-Jun-21 17:30N 38°41' W 009°08'3 6.4
2018-Jun-21 17:00N 38°40' W 009°04'0 0.3
2018-Jun-21 16:30N 38°40' W 009°05'3 6.5
2018-Jun-21 16:00N 38°41' W 009°08'1 2.3
2018-Jun-21 15:30N 38°42' W 009°10'0 0.6
2018-Jun-21 15:00N 38°42' W 009°10'0 0.6
2018-Jun-21 14:30N 38°42' W 009°10'0 0.0
2018-Jun-21 14:00N 38°42' W 009°10'0 0.0
2018-Jun-21 13:30N 38°42' W 009°10'0 0.0
2018-Jun-21 13:00N 38°42' W 009°10'0 0.0
2018-Jun-21 12:30N 38°42' W 009°10'0 0.0
2018-Jun-21 12:00N 38°42' W 009°10'0 0.0
2018-Jun-21 11:30N 38°42' W 009°10'0 0.0
2018-Jun-21 11:00N 38°42' W 009°10'0 0.0
2018-Jun-21 10:30N 38°42' W 009°10'0 0.0
2018-Jun-21 09:59N 38°42' W 009°10'0 0.0
2018-Jun-21 09:30N 38°42' W 009°10'0 0.0
2018-Jun-21 09:00N 38°42' W 009°10'0 0.0
2018-Jun-21 08:30N 38°42' W 009°10'0 0.3
2018-Jun-21 07:57N 38°42' W 009°09'0 0.2
2018-Jun-21 07:29N 38°42' W 009°09'0 0.3
2018-Jun-21 06:58N 38°42' W 009°10'0 0.0
2018-Jun-21 06:30N 38°42' W 009°10'0 0.0
2018-Jun-21 06:00N 38°42' W 009°10'0 0.0
2018-Jun-21 05:30N 38°42' W 009°10'0 0.0
2018-Jun-21 04:59N 38°42' W 009°10'0 0.0
2018-Jun-21 04:30N 38°42' W 009°10'0 0.0
2018-Jun-21 03:59N 38°42' W 009°10'0 0.0
2018-Jun-21 03:30N 38°42' W 009°10'0 0.0
2018-Jun-21 03:00N 38°42' W 009°10'0 0.0
2018-Jun-21 02:30N 38°42' W 009°10'0 0.0
2018-Jun-21 01:58N 38°42' W 009°10'0 0.0
2018-Jun-21 01:30N 38°42' W 009°10'0 0.0
2018-Jun-21 01:00N 38°42' W 009°10'0 0.0
2018-Jun-21 00:30N 38°42' W 009°10'0 0.0
2018-Jun-21 00:00N 38°42' W 009°10'0 0.0
2018-Jun-20 23:29N 38°42' W 009°10'0 0.0
2018-Jun-20 23:00N 38°42' W 009°10'0 0.0
2018-Jun-20 22:30N 38°42' W 009°10'0 0.0
2018-Jun-20 22:00N 38°42' W 009°10'0 0.0
2018-Jun-20 21:29N 38°42' W 009°10'0 0.0
2018-Jun-20 21:00N 38°42' W 009°10'2 4.2
2018-Jun-20 20:31N 38°40' W 009°09'0 0.2
2018-Jun-20 20:00N 38°40' W 009°09'0 0.5
2018-Jun-20 19:29N 38°40' W 009°09'0 0.0
2018-Jun-20 18:58N 38°40' W 009°09'0 0.0
2018-Jun-20 18:30N 38°40' W 009°09'0 0.4
2018-Jun-20 18:01N 38°40' W 009°09'0 0.1
2018-Jun-20 17:31N 38°40' W 009°09'0 0.5
2018-Jun-20 17:00N 38°40' W 009°09'2 3.4
2018-Jun-20 16:29N 38°42' W 009°10'0 0.0
2018-Jun-20 15:57N 38°42' W 009°10'1 2.0
2018-Jun-20 15:30N 38°42' W 009°09'1 2.7
2018-Jun-20 15:00N 38°40' W 009°09'0 0.4
2018-Jun-20 14:30N 38°40' W 009°09'2 3.7
2018-Jun-20 14:00N 38°42' W 009°10'0 0.0
2018-Jun-20 13:30N 38°42' W 009°10'0 0.0
2018-Jun-20 13:00N 38°42' W 009°10'0 0.0
2018-Jun-20 12:30N 38°42' W 009°10'0 0.0
2018-Jun-20 11:59N 38°42' W 009°10'0 0.0
2018-Jun-20 11:30N 38°42' W 009°10'0 0.0
2018-Jun-20 11:00N 38°42' W 009°10'0 0.0
2018-Jun-20 10:30N 38°42' W 009°10'0 0.0
2018-Jun-20 10:00N 38°42' W 009°10'0 0.0
2018-Jun-20 09:30N 38°42' W 009°10'0 0.0
2018-Jun-20 08:57N 38°42' W 009°10'0 0.0
2018-Jun-20 08:29N 38°42' W 009°10'0 0.0
2018-Jun-20 08:00N 38°42' W 009°10'0 0.3
2018-Jun-20 07:30N 38°42' W 009°10'0 0.1
2018-Jun-20 07:00N 38°42' W 009°10'0 0.2
2018-Jun-20 06:29N 38°42' W 009°10'0 0.0
2018-Jun-20 05:58N 38°42' W 009°10'0 0.0
2018-Jun-20 05:30N 38°42' W 009°10'0 0.0
2018-Jun-20 05:00N 38°42' W 009°10'0 0.0
2018-Jun-20 04:30N 38°42' W 009°10'0 0.0
2018-Jun-20 04:00N 38°42' W 009°10'0 0.0
2018-Jun-20 03:30N 38°42' W 009°10'0 0.0
2018-Jun-20 03:00N 38°42' W 009°10'0 0.0
2018-Jun-20 02:30N 38°42' W 009°10'0 0.0
2018-Jun-20 01:54N 38°42' W 009°10'0 0.0
2018-Jun-20 01:30N 38°42' W 009°10'0 0.0
2018-Jun-20 01:00N 38°42' W 009°10'0 0.0
2018-Jun-20 00:30N 38°42' W 009°10'0 0.0
2018-Jun-20 00:00N 38°42' W 009°10'0 0.0
2018-Jun-19 23:25N 38°42' W 009°10'0 0.0
2018-Jun-19 22:58N 38°42' W 009°10'0 0.0
2018-Jun-19 22:30N 38°42' W 009°10'0 0.0
2018-Jun-19 22:00N 38°42' W 009°10'0 0.0
2018-Jun-19 21:30N 38°42' W 009°10'0 0.0
2018-Jun-19 20:57N 38°42' W 009°10'0 0.0
2018-Jun-19 20:30N 38°42' W 009°10'0 0.0
2018-Jun-19 20:00N 38°42' W 009°10'0 0.0
2018-Jun-19 19:28N 38°42' W 009°10'0 0.0
2018-Jun-19 18:58N 38°42' W 009°10'0 0.0
2018-Jun-19 18:29N 38°42' W 009°10'0 0.0
2018-Jun-19 18:00N 38°42' W 009°10'0 0.0
2018-Jun-19 17:30N 38°42' W 009°10'0 0.0
2018-Jun-19 16:58N 38°42' W 009°10'0 0.0
2018-Jun-19 16:30N 38°42' W 009°10'0 0.0
2018-Jun-19 15:57N 38°42' W 009°10'0 0.0
2018-Jun-19 15:30N 38°42' W 009°10'0 0.0
2018-Jun-19 15:00N 38°42' W 009°10'0 0.0
2018-Jun-19 14:29N 38°42' W 009°10'0 0.0
2018-Jun-19 14:00N 38°42' W 009°10'0 0.0
2018-Jun-19 13:29N 38°42' W 009°10'0 0.0
2018-Jun-19 13:00N 38°42' W 009°10'0 0.0
2018-Jun-19 12:30N 38°42' W 009°10'0 0.0
2018-Jun-19 12:00N 38°42' W 009°10'0 0.0
2018-Jun-19 11:29N 38°42' W 009°10'0 0.0
2018-Jun-19 11:00N 38°42' W 009°10'0 0.0
2018-Jun-19 10:30N 38°42' W 009°10'0 0.0
2018-Jun-19 10:00N 38°42' W 009°10'0 0.0
2018-Jun-19 09:30N 38°42' W 009°10'0 0.0
2018-Jun-19 09:00N 38°42' W 009°10'0 0.0
2018-Jun-19 08:30N 38°42' W 009°10'2 3.4
2018-Jun-19 08:00N 38°41' W 009°11'0 0.2
2018-Jun-19 07:30N 38°41' W 009°11'0 0.4
2018-Jun-19 07:00N 38°41' W 009°11'2 3.2
2018-Jun-19 06:31N 38°41' W 009°13'0 0.8
2018-Jun-19 06:00N 38°41' W 009°13'3 5.4
2018-Jun-19 05:30N 38°42' W 009°10'0 0.0
2018-Jun-19 05:00N 38°42' W 009°10'0 0.0
2018-Jun-19 04:30N 38°42' W 009°10'0 0.0
2018-Jun-19 03:58N 38°42' W 009°10'0 0.0
2018-Jun-19 03:29N 38°42' W 009°10'0 0.0
2018-Jun-19 02:59N 38°42' W 009°10'0 0.0
2018-Jun-19 02:26N 38°42' W 009°10'0 0.0
2018-Jun-19 02:00N 38°42' W 009°10'0 0.0
2018-Jun-19 01:29N 38°42' W 009°10'0 0.0
2018-Jun-19 01:00N 38°42' W 009°10'0 0.0
2018-Jun-19 00:28N 38°42' W 009°10'2 4.1
2018-Jun-19 00:00N 38°41' W 009°11'1 2.9
2018-Jun-18 23:30N 38°42' W 009°10'0 0.9
2018-Jun-18 23:00N 38°42' W 009°10'0 0.0
2018-Jun-18 22:30N 38°42' W 009°10'0 0.0
2018-Jun-18 22:00N 38°42' W 009°10'0 0.0
2018-Jun-18 21:30N 38°42' W 009°10'3 6.9
2018-Jun-18 21:01N 38°41' W 009°14'2 3.0
2018-Jun-18 20:29N 38°41' W 009°12'2 3.9
2018-Jun-18 20:00N 38°42' W 009°10'0 0.0
2018-Jun-18 19:30N 38°42' W 009°10'0 0.0
2018-Jun-18 19:00N 38°42' W 009°10'0 0.0
2018-Jun-18 18:30N 38°42' W 009°10'0 0.0
2018-Jun-18 18:00N 38°42' W 009°10'0 0.0
2018-Jun-18 17:29N 38°42' W 009°10'0 0.0
2018-Jun-18 17:00N 38°42' W 009°10'0 0.0
2018-Jun-18 16:29N 38°42' W 009°10'0 0.0
2018-Jun-18 15:58N 38°42' W 009°10'0 0.0
2018-Jun-18 15:30N 38°42' W 009°10'0 0.0
2018-Jun-18 14:57N 38°42' W 009°10'0 0.0
2018-Jun-18 14:25N 38°42' W 009°10'0 0.0
2018-Jun-18 13:57N 38°42' W 009°10'0 0.0
2018-Jun-18 13:11N 38°42' W 009°10'0 0.0
2018-Jun-18 13:00N 38°42' W 009°10'0 0.0
2018-Jun-18 12:29N 38°42' W 009°10'0 0.0
2018-Jun-18 12:00N 38°42' W 009°10'0 0.0
2018-Jun-18 11:21N 38°42' W 009°10'0 0.0
2018-Jun-18 10:57N 38°42' W 009°10'0 0.0
2018-Jun-18 10:29N 38°42' W 009°10'0 0.0
2018-Jun-18 10:00N 38°42' W 009°10'0 0.0
2018-Jun-18 09:29N 38°42' W 009°10'0 0.0
2018-Jun-18 09:00N 38°42' W 009°10'0 0.0
2018-Jun-18 08:30N 38°42' W 009°10'0 0.0
2018-Jun-18 08:00N 38°42' W 009°10'0 0.0
2018-Jun-18 07:30N 38°42' W 009°10'0 0.0
2018-Jun-18 07:00N 38°42' W 009°10'2 3.6
2018-Jun-18 06:30N 38°41' W 009°11'0 0.7
2018-Jun-18 06:00N 38°41' W 009°12'2 4.0
2018-Jun-18 05:30N 38°42' W 009°10'0 0.3
2018-Jun-18 05:00N 38°42' W 009°10'0 0.0
2018-Jun-18 04:30N 38°42' W 009°10'0 0.0
2018-Jun-18 04:00N 38°42' W 009°10'0 0.0
2018-Jun-18 03:30N 38°42' W 009°10'0 0.0
2018-Jun-18 03:00N 38°42' W 009°10'0 0.0
2018-Jun-18 02:30N 38°42' W 009°10'0 0.0
2018-Jun-18 02:00N 38°42' W 009°10'0 0.0
2018-Jun-18 01:30N 38°42' W 009°10'0 0.0
2018-Jun-18 01:00N 38°42' W 009°10'0 0.0
2018-Jun-18 00:29N 38°42' W 009°10'0 0.0
2018-Jun-18 00:00N 38°42' W 009°10'0 0.0
2018-Jun-17 23:30N 38°42' W 009°10'0 0.0
2018-Jun-17 23:00N 38°42' W 009°10'0 0.0
2018-Jun-17 22:29N 38°42' W 009°10'0 0.0
2018-Jun-17 22:00N 38°42' W 009°10'0 0.0
2018-Jun-17 21:29N 38°42' W 009°10'0 0.0
2018-Jun-17 20:55N 38°42' W 009°10'0 0.0
2018-Jun-17 20:30N 38°42' W 009°10'0 0.0
2018-Jun-17 19:57N 38°42' W 009°10'0 0.0
2018-Jun-17 19:30N 38°42' W 009°10'0 0.0
2018-Jun-17 18:57N 38°42' W 009°10'0 0.0
2018-Jun-17 18:30N 38°42' W 009°10'0 0.0
2018-Jun-17 17:59N 38°42' W 009°10'0 0.0
2018-Jun-17 17:30N 38°42' W 009°10'0 0.0
2018-Jun-17 17:00N 38°42' W 009°10'0 0.0
2018-Jun-17 16:30N 38°42' W 009°10'0 0.0
2018-Jun-17 16:00N 38°42' W 009°10'0 0.0
2018-Jun-17 15:29N 38°42' W 009°10'2 4.0
2018-Jun-17 14:59N 38°40' W 009°09'1 2.1
2018-Jun-17 14:30N 38°41' W 009°08'1 2.1
2018-Jun-17 14:00N 38°41' W 009°09'1 1.8
2018-Jun-17 13:30N 38°42' W 009°10'0 0.0
2018-Jun-17 12:59N 38°42' W 009°10'0 0.0
2018-Jun-17 12:30N 38°42' W 009°10'0 0.0
2018-Jun-17 11:58N 38°42' W 009°10'0 0.0
2018-Jun-17 11:29N 38°42' W 009°10'0 0.0
2018-Jun-17 11:00N 38°42' W 009°10'0 0.0
2018-Jun-17 10:30N 38°42' W 009°10'0 0.0
2018-Jun-17 09:59N 38°42' W 009°10'0 0.0
2018-Jun-17 09:28N 38°42' W 009°10'0 0.0
2018-Jun-17 09:00N 38°42' W 009°10'0 0.0
2018-Jun-17 08:30N 38°42' W 009°10'0 0.0
2018-Jun-17 07:58N 38°42' W 009°10'0 0.0
2018-Jun-17 07:30N 38°42' W 009°10'0 0.0
2018-Jun-17 06:59N 38°42' W 009°10'0 0.0
2018-Jun-17 06:30N 38°42' W 009°10'0 0.0
2018-Jun-17 06:00N 38°42' W 009°10'0 0.0
2018-Jun-17 05:25N 38°42' W 009°10'0 0.0
2018-Jun-17 04:58N 38°42' W 009°10'0 0.0
2018-Jun-17 04:28N 38°42' W 009°10'0 0.0
2018-Jun-17 03:58N 38°42' W 009°10'0 0.0
2018-Jun-17 03:30N 38°42' W 009°10'0 0.0
2018-Jun-17 03:00N 38°42' W 009°10'0 0.0
2018-Jun-17 02:30N 38°42' W 009°10'0 0.0
2018-Jun-17 02:00N 38°42' W 009°10'0 0.0
2018-Jun-17 01:30N 38°42' W 009°10'0 0.0
2018-Jun-17 01:00N 38°42' W 009°10'0 0.0
2018-Jun-17 00:28N 38°42' W 009°10'0 0.0
2018-Jun-17 00:00N 38°42' W 009°10'0 0.0
2018-Jun-16 23:27N 38°42' W 009°10'0 0.0
2018-Jun-16 22:59N 38°42' W 009°10'0 0.0
2018-Jun-16 22:29N 38°42' W 009°10'0 0.0
2018-Jun-16 21:59N 38°42' W 009°10'0 0.0
2018-Jun-16 21:28N 38°42' W 009°10'0 0.0
2018-Jun-16 20:59N 38°42' W 009°10'0 0.0
2018-Jun-16 20:28N 38°42' W 009°10'0 0.0
2018-Jun-16 20:00N 38°42' W 009°10'0 0.0
2018-Jun-16 19:30N 38°42' W 009°10'0 0.0
2018-Jun-16 18:59N 38°42' W 009°10'0 0.0
2018-Jun-16 18:30N 38°42' W 009°10'0 0.0
2018-Jun-16 18:00N 38°42' W 009°10'0 0.7
2018-Jun-16 17:30N 38°42' W 009°09'1 2.6
2018-Jun-16 17:00N 38°43' W 009°08'1 1.5
2018-Jun-16 16:30N 38°42' W 009°08'1 2.8
2018-Jun-16 16:00N 38°42' W 009°10'0 0.0
2018-Jun-16 15:30N 38°42' W 009°10'0 0.0
2018-Jun-16 14:59N 38°42' W 009°10'0 0.0
2018-Jun-16 14:30N 38°42' W 009°10'0 0.0
2018-Jun-16 13:59N 38°42' W 009°10'0 0.0
2018-Jun-16 13:30N 38°42' W 009°10'0 0.0
2018-Jun-16 13:00N 38°42' W 009°10'0 0.0
2018-Jun-16 12:30N 38°42' W 009°10'0 0.0
2018-Jun-16 12:00N 38°42' W 009°10'0 0.0
2018-Jun-16 11:30N 38°42' W 009°10'0 0.0
2018-Jun-16 11:00N 38°42' W 009°10'1 1.4
2018-Jun-16 10:30N 38°41' W 009°10'2 3.2
2018-Jun-16 09:59N 38°41' W 009°12'1 2.2
2018-Jun-16 09:30N 38°41' W 009°13'3 6.5
2018-Jun-16 09:01N 38°42' W 009°09'0 0.3
2018-Jun-16 08:30N 38°42' W 009°10'0 0.0
2018-Jun-16 08:00N 38°42' W 009°10'0 0.0
2018-Jun-16 07:30N 38°42' W 009°10'0 0.0
2018-Jun-16 06:59N 38°42' W 009°10'0 0.0
2018-Jun-16 06:30N 38°42' W 009°10'0 0.0
2018-Jun-16 06:00N 38°42' W 009°10'0 0.4
2018-Jun-16 05:30N 38°42' W 009°09'4 7.3
2018-Jun-16 05:00N 38°41' W 009°14'0 1.0
2018-Jun-16 04:30N 38°41' W 009°14'1 2.5
2018-Jun-16 03:59N 38°41' W 009°13'3 5.8
2018-Jun-16 03:31N 38°42' W 009°10'0 0.2
2018-Jun-16 03:00N 38°42' W 009°10'0 0.0
2018-Jun-16 02:30N 38°42' W 009°10'0 0.0
2018-Jun-16 01:59N 38°42' W 009°10'0 0.0
2018-Jun-16 01:30N 38°42' W 009°10'0 0.0
2018-Jun-16 01:00N 38°42' W 009°10'0 0.0
2018-Jun-16 00:30N 38°42' W 009°10'0 0.0
2018-Jun-16 00:00N 38°42' W 009°10'0 0.0
2018-Jun-15 23:30N 38°42' W 009°10'0 0.0
2018-Jun-15 22:59N 38°42' W 009°10'0 0.0
2018-Jun-15 22:30N 38°42' W 009°10'0 0.0
2018-Jun-15 21:54N 38°42' W 009°10'1 3.2
2018-Jun-15 21:30N 38°41' W 009°11'0 0.8
2018-Jun-15 20:59N 38°41' W 009°11'0 0.0
2018-Jun-15 20:28N 38°41' W 009°11'0 0.0
2018-Jun-15 20:00N 38°41' W 009°11'0 0.0
2018-Jun-15 19:30N 38°41' W 009°11'0 0.0
2018-Jun-15 19:00N 38°41' W 009°11'0 0.1
2018-Jun-15 18:30N 38°41' W 009°11'0 0.2
2018-Jun-15 17:59N 38°41' W 009°11'0 0.4
2018-Jun-15 17:30N 38°41' W 009°11'1 2.2
2018-Jun-15 17:00N 38°42' W 009°10'1 1.3
2018-Jun-15 16:30N 38°42' W 009°10'0 0.0
2018-Jun-15 16:00N 38°42' W 009°10'0 0.0
2018-Jun-15 15:30N 38°42' W 009°10'3 6.4
2018-Jun-15 15:00N 38°41' W 009°13'1 1.5
2018-Jun-15 14:30N 38°41' W 009°14'0 0.3
2018-Jun-15 13:59N 38°41' W 009°14'2 5.0
2018-Jun-15 13:30N 38°41' W 009°11'1 2.9
2018-Jun-15 13:00N 38°42' W 009°10'0 0.0
2018-Jun-15 12:29N 38°42' W 009°10'0 0.0
2018-Jun-15 11:59N 38°42' W 009°10'0 0.0
2018-Jun-15 11:30N 38°42' W 009°10'0 0.0
2018-Jun-15 11:00N 38°42' W 009°10'0 0.0
2018-Jun-15 10:30N 38°42' W 009°10'0 0.0
2018-Jun-15 09:53N 38°42' W 009°10'0 0.0
2018-Jun-15 09:30N 38°42' W 009°10'0 0.0
2018-Jun-15 09:00N 38°42' W 009°10'0 0.0
2018-Jun-15 08:28N 38°42' W 009°10'0 0.0
2018-Jun-15 08:00N 38°42' W 009°10'0 0.0
2018-Jun-15 07:30N 38°42' W 009°10'0 0.0
2018-Jun-15 07:00N 38°42' W 009°10'0 0.0
2018-Jun-15 06:30N 38°42' W 009°10'0 0.0
2018-Jun-15 05:58N 38°42' W 009°10'0 0.0
2018-Jun-15 05:30N 38°42' W 009°10'0 0.0
2018-Jun-15 04:58N 38°42' W 009°10'0 0.0
2018-Jun-15 04:30N 38°42' W 009°10'0 0.0
2018-Jun-15 04:00N 38°42' W 009°10'0 0.0
2018-Jun-15 03:29N 38°42' W 009°10'0 0.0
2018-Jun-15 02:59N 38°42' W 009°10'0 0.0
2018-Jun-15 02:30N 38°42' W 009°10'0 0.0
2018-Jun-15 01:57N 38°42' W 009°10'0 0.0
2018-Jun-15 01:29N 38°42' W 009°10'0 0.0
2018-Jun-15 01:00N 38°42' W 009°10'0 0.0
2018-Jun-15 00:29N 38°42' W 009°10'0 0.0
2018-Jun-14 23:58N 38°42' W 009°10'0 0.0
2018-Jun-14 23:28N 38°42' W 009°10'0 0.0
2018-Jun-14 22:58N 38°42' W 009°10'0 0.0
2018-Jun-14 22:30N 38°42' W 009°10'0 0.0
2018-Jun-14 22:00N 38°42' W 009°10'0 0.0
2018-Jun-14 21:30N 38°42' W 009°10'0 0.0
2018-Jun-14 21:00N 38°42' W 009°10'0 0.0
2018-Jun-14 20:30N 38°42' W 009°10'0 0.0
2018-Jun-14 20:00N 38°42' W 009°10'0 0.0
2018-Jun-14 19:30N 38°42' W 009°10'0 0.0
2018-Jun-14 19:00N 38°42' W 009°10'0 0.0
2018-Jun-14 18:29N 38°42' W 009°10'0 0.0
2018-Jun-14 18:00N 38°42' W 009°10'0 0.0
2018-Jun-14 17:30N 38°42' W 009°10'0 0.0
2018-Jun-14 17:00N 38°42' W 009°10'0 0.0
2018-Jun-14 16:30N 38°42' W 009°10'0 0.0
2018-Jun-14 16:00N 38°42' W 009°10'0 0.0
2018-Jun-14 15:30N 38°42' W 009°10'0 0.0
2018-Jun-14 15:00N 38°42' W 009°10'0 0.0
2018-Jun-14 14:30N 38°42' W 009°10'0 0.0
2018-Jun-14 14:00N 38°42' W 009°10'0 0.0
2018-Jun-14 13:29N 38°42' W 009°10'0 0.0
2018-Jun-14 13:00N 38°42' W 009°10'0 0.0
2018-Jun-14 12:30N 38°42' W 009°10'0 0.0
2018-Jun-14 11:59N 38°42' W 009°10'0 0.0
2018-Jun-14 11:29N 38°42' W 009°10'0 1.0
2018-Jun-14 11:00N 38°42' W 009°10'1 2.1
2018-Jun-14 10:29N 38°41' W 009°11'1 1.8
2018-Jun-14 10:00N 38°42' W 009°11'0 0.1
2018-Jun-14 09:30N 38°42' W 009°11'0 0.1
2018-Jun-14 09:01N 38°42' W 009°11'1 1.7
2018-Jun-14 08:30N 38°42' W 009°09'0 0.3
2018-Jun-14 08:00N 38°42' W 009°10'0 0.0
2018-Jun-14 07:29N 38°42' W 009°10'0 0.0
2018-Jun-14 06:58N 38°42' W 009°10'0 0.0
2018-Jun-14 06:30N 38°42' W 009°10'1 2.0
2018-Jun-14 06:00N 38°42' W 009°08'1 2.0
2018-Jun-14 05:30N 38°43' W 009°07'1 2.7
2018-Jun-14 05:00N 38°42' W 009°09'1 1.3
2018-Jun-14 04:29N 38°42' W 009°10'0 0.0
2018-Jun-14 04:00N 38°42' W 009°10'0 0.0
2018-Jun-14 03:30N 38°42' W 009°10'0 0.0
2018-Jun-14 03:00N 38°42' W 009°10'0 0.0
2018-Jun-14 02:29N 38°42' W 009°10'0 0.0
2018-Jun-14 02:00N 38°42' W 009°10'0 0.0
2018-Jun-14 01:29N 38°42' W 009°10'0 0.0
2018-Jun-14 00:55N 38°42' W 009°10'0 0.0
2018-Jun-14 00:30N 38°42' W 009°10'0 0.0
2018-Jun-13 23:57N 38°42' W 009°10'0 0.0
2018-Jun-13 23:28N 38°42' W 009°10'0 0.0
2018-Jun-13 22:58N 38°42' W 009°10'0 0.0
2018-Jun-13 22:27N 38°42' W 009°10'0 0.0
2018-Jun-13 21:59N 38°42' W 009°10'0 0.0
2018-Jun-13 21:30N 38°42' W 009°10'0 0.0
2018-Jun-13 20:59N 38°42' W 009°10'0 0.0
2018-Jun-13 20:30N 38°42' W 009°10'0 0.0
2018-Jun-13 19:55N 38°42' W 009°10'0 0.0
2018-Jun-13 19:27N 38°42' W 009°10'0 0.0
2018-Jun-13 19:00N 38°42' W 009°10'0 0.0
2018-Jun-13 18:30N 38°42' W 009°10'1 1.0
2018-Jun-13 18:00N 38°42' W 009°10'1 1.0
2018-Jun-13 17:30N 38°42' W 009°10'0 0.0
2018-Jun-13 17:00N 38°42' W 009°10'0 0.0
2018-Jun-13 16:29N 38°42' W 009°10'0 0.0
2018-Jun-13 16:00N 38°42' W 009°10'0 0.0
2018-Jun-13 15:28N 38°42' W 009°10'0 0.0
2018-Jun-13 15:00N 38°42' W 009°10'0 0.0
2018-Jun-13 14:30N 38°42' W 009°10'0 0.0
2018-Jun-13 13:57N 38°42' W 009°10'0 0.0
2018-Jun-13 13:28N 38°42' W 009°10'0 0.0
2018-Jun-13 12:57N 38°42' W 009°10'0 0.0
2018-Jun-13 12:30N 38°42' W 009°10'0 0.0
2018-Jun-13 12:00N 38°42' W 009°10'0 0.0
2018-Jun-13 11:29N 38°42' W 009°10'0 0.0
2018-Jun-13 10:58N 38°42' W 009°10'0 0.0
2018-Jun-13 10:30N 38°42' W 009°10'0 0.0
2018-Jun-13 09:59N 38°42' W 009°10'0 0.0
2018-Jun-13 09:30N 38°42' W 009°10'  
Track history (hours):
 
Tides and Currents Weather Stations Pressure Air Temp Water Temp Dewpoint Dewpoint Depression Visibility Wind Speed Wind Dir Waves Ship Positions

Svitzer Leixoes

Last reported at 2018-Jun-23 09:30 UTC. Time now 2018-Jun-23 09:51 UTC.
Position N 38°42' W 009°10'.

Length 29 m; draft 3.6 m.

Type: Tug. MMSI: 263622000.

Date/timePositionNaut miles runAvg speedWind from/ knotsBaromVisibWave heightAir tempDewpointWater temp
2018-Jun-23 09:30N 38°42' W 009°10'0 0.0
2018-Jun-23 09:00N 38°42' W 009°10'0 0.0
2018-Jun-23 08:30N 38°42' W 009°10'0 0.0
2018-Jun-23 07:59N 38°42' W 009°10'0 0.0
2018-Jun-23 07:29N 38°42' W 009°10'0 0.0
2018-Jun-23 06:59N 38°42' W 009°10'0 0.0
2018-Jun-23 06:29N 38°42' W 009°10'0 0.0
2018-Jun-23 06:00N 38°42' W 009°10'0 0.0
2018-Jun-23 05:30N 38°42' W 009°10'0 0.0
2018-Jun-23 05:00N 38°42' W 009°10'0 0.0
2018-Jun-23 04:30N 38°42' W 009°10'0 0.0
2018-Jun-23 03:58N 38°42' W 009°10'0 0.0
2018-Jun-23 03:28N 38°42' W 009°10'0 0.0
2018-Jun-23 03:00N 38°42' W 009°10'0 0.0
2018-Jun-23 02:30N 38°42' W 009°10'0 0.0
2018-Jun-23 02:00N 38°42' W 009°10'0 0.0
2018-Jun-23 01:30N 38°42' W 009°10'0 0.0
2018-Jun-23 00:58N 38°42' W 009°10'0 0.0
2018-Jun-23 00:29N 38°42' W 009°10'0 0.0
2018-Jun-22 23:58N 38°42' W 009°10'0 0.0
2018-Jun-22 23:30N 38°42' W 009°10'0 0.0
2018-Jun-22 23:00N 38°42' W 009°10'0 0.0
2018-Jun-22 22:30N 38°42' W 009°10'0 0.0
2018-Jun-22 21:54N 38°42' W 009°10'0 0.0
2018-Jun-22 21:29N 38°42' W 009°10'0 0.0
2018-Jun-22 21:00N 38°42' W 009°10'0 0.0
2018-Jun-22 20:30N 38°42' W 009°10'0 0.0
2018-Jun-22 19:58N 38°42' W 009°10'0 0.0
2018-Jun-22 19:30N 38°42' W 009°10'0 0.0
2018-Jun-22 19:00N 38°42' W 009°10'0 0.0
2018-Jun-22 18:29N 38°42' W 009°10'0 0.0
2018-Jun-22 17:59N 38°42' W 009°10'0 0.0
2018-Jun-22 17:30N 38°42' W 009°10'0 0.0
2018-Jun-22 17:00N 38°42' W 009°10'0 0.0
2018-Jun-22 16:30N 38°42' W 009°10'0 0.0
2018-Jun-22 15:59N 38°42' W 009°10'0 0.0
2018-Jun-22 15:30N 38°42' W 009°10'0 0.0
2018-Jun-22 15:00N 38°42' W 009°10'0 0.0
2018-Jun-22 14:29N 38°42' W 009°10'0 0.0
2018-Jun-22 14:00N 38°42' W 009°10'0 0.0
2018-Jun-22 13:29N 38°42' W 009°10'0 0.0
2018-Jun-22 13:00N 38°42' W 009°10'0 0.0
2018-Jun-22 12:30N 38°42' W 009°10'0 0.0
2018-Jun-22 11:58N 38°42' W 009°10'0 0.0
2018-Jun-22 11:24N 38°42' W 009°10'0 0.0
2018-Jun-22 11:00N 38°42' W 009°10'0 0.0
2018-Jun-22 10:29N 38°42' W 009°10'0 0.0
2018-Jun-22 10:00N 38°42' W 009°10'0 0.4
2018-Jun-22 09:28N 38°42' W 009°10'0 0.0
2018-Jun-22 09:00N 38°42' W 009°10'3 5.3
2018-Jun-22 08:30N 38°43' W 009°07'1 1.3
2018-Jun-22 08:00N 38°44' W 009°06'1 2.5
2018-Jun-22 07:30N 38°43' W 009°07'2 4.2
2018-Jun-22 07:00N 38°42' W 009°10'0 0.0
2018-Jun-22 06:27N 38°42' W 009°10'0 0.0
2018-Jun-22 05:57N 38°42' W 009°10'0 0.0
2018-Jun-22 05:28N 38°42' W 009°10'0 0.0
2018-Jun-22 04:58N 38°42' W 009°10'0 0.0
2018-Jun-22 04:30N 38°42' W 009°10'0 0.0
2018-Jun-22 04:00N 38°42' W 009°10'0 0.0
2018-Jun-22 03:30N 38°42' W 009°10'0 0.0
2018-Jun-22 03:00N 38°42' W 009°10'0 0.0
2018-Jun-22 02:27N 38°42' W 009°10'0 0.0
2018-Jun-22 01:51N 38°42' W 009°10'0 0.0
2018-Jun-22 01:26N 38°42' W 009°10'0 0.0
2018-Jun-22 00:59N 38°42' W 009°10'0 0.0
2018-Jun-22 00:30N 38°42' W 009°10'0 0.0
2018-Jun-21 23:58N 38°42' W 009°10'0 0.0
2018-Jun-21 23:30N 38°42' W 009°10'0 0.0
2018-Jun-21 22:59N 38°42' W 009°10'4 6.2
2018-Jun-21 22:25N 38°44' W 009°06'0 0.1
2018-Jun-21 22:01N 38°44' W 009°06'0 0.2
2018-Jun-21 21:30N 38°44' W 009°06'1 2.7
2018-Jun-21 20:59N 38°43' W 009°07'2 4.6
2018-Jun-21 20:30N 38°42' W 009°09'0 0.5
2018-Jun-21 20:00N 38°42' W 009°10'0 0.2
2018-Jun-21 19:29N 38°42' W 009°10'0 0.0
2018-Jun-21 18:59N 38°42' W 009°10'0 0.0
2018-Jun-21 18:28N 38°42' W 009°10'0 0.0
2018-Jun-21 18:00N 38°42' W 009°10'1 2.9
2018-Jun-21 17:30N 38°41' W 009°08'3 6.4
2018-Jun-21 17:00N 38°40' W 009°04'0 0.3
2018-Jun-21 16:30N 38°40' W 009°05'3 6.5
2018-Jun-21 16:00N 38°41' W 009°08'1 2.3
2018-Jun-21 15:30N 38°42' W 009°10'0 0.6
2018-Jun-21 15:00N 38°42' W 009°10'0 0.6
2018-Jun-21 14:30N 38°42' W 009°10'0 0.0
2018-Jun-21 14:00N 38°42' W 009°10'0 0.0
2018-Jun-21 13:30N 38°42' W 009°10'0 0.0
2018-Jun-21 13:00N 38°42' W 009°10'0 0.0
2018-Jun-21 12:30N 38°42' W 009°10'0 0.0
2018-Jun-21 12:00N 38°42' W 009°10'0 0.0
2018-Jun-21 11:30N 38°42' W 009°10'0 0.0
2018-Jun-21 11:00N 38°42' W 009°10'0 0.0
2018-Jun-21 10:30N 38°42' W 009°10'0 0.0
2018-Jun-21 09:59N 38°42' W 009°10'0 0.0
2018-Jun-21 09:30N 38°42' W 009°10'0 0.0
2018-Jun-21 09:00N 38°42' W 009°10'0 0.0
2018-Jun-21 08:30N 38°42' W 009°10'0 0.3
2018-Jun-21 07:57N 38°42' W 009°09'0 0.2
2018-Jun-21 07:29N 38°42' W 009°09'0 0.3
2018-Jun-21 06:58N 38°42' W 009°10'0 0.0
2018-Jun-21 06:30N 38°42' W 009°10'0 0.0
2018-Jun-21 06:00N 38°42' W 009°10'0 0.0
2018-Jun-21 05:30N 38°42' W 009°10'0 0.0
2018-Jun-21 04:59N 38°42' W 009°10'0 0.0
2018-Jun-21 04:30N 38°42' W 009°10'0 0.0
2018-Jun-21 03:59N 38°42' W 009°10'0 0.0
2018-Jun-21 03:30N 38°42' W 009°10'0 0.0
2018-Jun-21 03:00N 38°42' W 009°10'0 0.0
2018-Jun-21 02:30N 38°42' W 009°10'0 0.0
2018-Jun-21 01:58N 38°42' W 009°10'0 0.0
2018-Jun-21 01:30N 38°42' W 009°10'0 0.0
2018-Jun-21 01:00N 38°42' W 009°10'0 0.0
2018-Jun-21 00:30N 38°42' W 009°10'0 0.0
2018-Jun-21 00:00N 38°42' W 009°10'0 0.0
2018-Jun-20 23:29N 38°42' W 009°10'0 0.0
2018-Jun-20 23:00N 38°42' W 009°10'0 0.0
2018-Jun-20 22:30N 38°42' W 009°10'0 0.0
2018-Jun-20 22:00N 38°42' W 009°10'0 0.0
2018-Jun-20 21:29N 38°42' W 009°10'0 0.0
2018-Jun-20 21:00N 38°42' W 009°10'2 4.2
2018-Jun-20 20:31N 38°40' W 009°09'0 0.2
2018-Jun-20 20:00N 38°40' W 009°09'0 0.5
2018-Jun-20 19:29N 38°40' W 009°09'0 0.0
2018-Jun-20 18:58N 38°40' W 009°09'0 0.0
2018-Jun-20 18:30N 38°40' W 009°09'0 0.4
2018-Jun-20 18:01N 38°40' W 009°09'0 0.1
2018-Jun-20 17:31N 38°40' W 009°09'0 0.5
2018-Jun-20 17:00N 38°40' W 009°09'2 3.4
2018-Jun-20 16:29N 38°42' W 009°10'0 0.0
2018-Jun-20 15:57N 38°42' W 009°10'1 2.0
2018-Jun-20 15:30N 38°42' W 009°09'1 2.7
2018-Jun-20 15:00N 38°40' W 009°09'0 0.4
2018-Jun-20 14:30N 38°40' W 009°09'2 3.7
2018-Jun-20 14:00N 38°42' W 009°10'0 0.0
2018-Jun-20 13:30N 38°42' W 009°10'0 0.0
2018-Jun-20 13:00N 38°42' W 009°10'0 0.0
2018-Jun-20 12:30N 38°42' W 009°10'0 0.0
2018-Jun-20 11:59N 38°42' W 009°10'0 0.0
2018-Jun-20 11:30N 38°42' W 009°10'0 0.0
2018-Jun-20 11:00N 38°42' W 009°10'0 0.0
2018-Jun-20 10:30N 38°42' W 009°10'0 0.0
2018-Jun-20 10:00N 38°42' W 009°10'0 0.0
2018-Jun-20 09:30N 38°42' W 009°10'0 0.0
2018-Jun-20 08:57N 38°42' W 009°10'0 0.0
2018-Jun-20 08:29N 38°42' W 009°10'0 0.0
2018-Jun-20 08:00N 38°42' W 009°10'0 0.3
2018-Jun-20 07:30N 38°42' W 009°10'0 0.1
2018-Jun-20 07:00N 38°42' W 009°10'0 0.2
2018-Jun-20 06:29N 38°42' W 009°10'0 0.0
2018-Jun-20 05:58N 38°42' W 009°10'0 0.0
2018-Jun-20 05:30N 38°42' W 009°10'0 0.0
2018-Jun-20 05:00N 38°42' W 009°10'0 0.0
2018-Jun-20 04:30N 38°42' W 009°10'0 0.0
2018-Jun-20 04:00N 38°42' W 009°10'0 0.0
2018-Jun-20 03:30N 38°42' W 009°10'0 0.0
2018-Jun-20 03:00N 38°42' W 009°10'0 0.0
2018-Jun-20 02:30N 38°42' W 009°10'0 0.0
2018-Jun-20 01:54N 38°42' W 009°10'0 0.0
2018-Jun-20 01:30N 38°42' W 009°10'0 0.0
2018-Jun-20 01:00N 38°42' W 009°10'0 0.0
2018-Jun-20 00:30N 38°42' W 009°10'0 0.0
2018-Jun-20 00:00N 38°42' W 009°10'0 0.0
2018-Jun-19 23:25N 38°42' W 009°10'0 0.0
2018-Jun-19 22:58N 38°42' W 009°10'0 0.0
2018-Jun-19 22:30N 38°42' W 009°10'0 0.0
2018-Jun-19 22:00N 38°42' W 009°10'0 0.0
2018-Jun-19 21:30N 38°42' W 009°10'0 0.0
2018-Jun-19 20:57N 38°42' W 009°10'0 0.0
2018-Jun-19 20:30N 38°42' W 009°10'0 0.0
2018-Jun-19 20:00N 38°42' W 009°10'0 0.0
2018-Jun-19 19:28N 38°42' W 009°10'0 0.0
2018-Jun-19 18:58N 38°42' W 009°10'0 0.0
2018-Jun-19 18:29N 38°42' W 009°10'0 0.0
2018-Jun-19 18:00N 38°42' W 009°10'0 0.0
2018-Jun-19 17:30N 38°42' W 009°10'0 0.0
2018-Jun-19 16:58N 38°42' W 009°10'0 0.0
2018-Jun-19 16:30N 38°42' W 009°10'0 0.0
2018-Jun-19 15:57N 38°42' W 009°10'0 0.0
2018-Jun-19 15:30N 38°42' W 009°10'0 0.0
2018-Jun-19 15:00N 38°42' W 009°10'0 0.0
2018-Jun-19 14:29N 38°42' W 009°10'0 0.0
2018-Jun-19 14:00N 38°42' W 009°10'0 0.0
2018-Jun-19 13:29N 38°42' W 009°10'0 0.0
2018-Jun-19 13:00N 38°42' W 009°10'0 0.0
2018-Jun-19 12:30N 38°42' W 009°10'0 0.0
2018-Jun-19 12:00N 38°42' W 009°10'0 0.0
2018-Jun-19 11:29N 38°42' W 009°10'0 0.0
2018-Jun-19 11:00N 38°42' W 009°10'0 0.0
2018-Jun-19 10:30N 38°42' W 009°10'0 0.0
2018-Jun-19 10:00N 38°42' W 009°10'0 0.0
2018-Jun-19 09:30N 38°42' W 009°10'0 0.0
2018-Jun-19 09:00N 38°42' W 009°10'0 0.0
2018-Jun-19 08:30N 38°42' W 009°10'2 3.4
2018-Jun-19 08:00N 38°41' W 009°11'0 0.2
2018-Jun-19 07:30N 38°41' W 009°11'0 0.4
2018-Jun-19 07:00N 38°41' W 009°11'2 3.2
2018-Jun-19 06:31N 38°41' W 009°13'0 0.8
2018-Jun-19 06:00N 38°41' W 009°13'3 5.4
2018-Jun-19 05:30N 38°42' W 009°10'0 0.0
2018-Jun-19 05:00N 38°42' W 009°10'0 0.0
2018-Jun-19 04:30N 38°42' W 009°10'0 0.0
2018-Jun-19 03:58N 38°42' W 009°10'0 0.0
2018-Jun-19 03:29N 38°42' W 009°10'0 0.0
2018-Jun-19 02:59N 38°42' W 009°10'0 0.0
2018-Jun-19 02:26N 38°42' W 009°10'0 0.0
2018-Jun-19 02:00N 38°42' W 009°10'0 0.0
2018-Jun-19 01:29N 38°42' W 009°10'0 0.0
2018-Jun-19 01:00N 38°42' W 009°10'0 0.0
2018-Jun-19 00:28N 38°42' W 009°10'2 4.1
2018-Jun-19 00:00N 38°41' W 009°11'1 2.9
2018-Jun-18 23:30N 38°42' W 009°10'0 0.9
2018-Jun-18 23:00N 38°42' W 009°10'0 0.0
2018-Jun-18 22:30N 38°42' W 009°10'0 0.0
2018-Jun-18 22:00N 38°42' W 009°10'0 0.0
2018-Jun-18 21:30N 38°42' W 009°10'3 6.9
2018-Jun-18 21:01N 38°41' W 009°14'2 3.0
2018-Jun-18 20:29N 38°41' W 009°12'2 3.9
2018-Jun-18 20:00N 38°42' W 009°10'0 0.0
2018-Jun-18 19:30N 38°42' W 009°10'0 0.0
2018-Jun-18 19:00N 38°42' W 009°10'0 0.0
2018-Jun-18 18:30N 38°42' W 009°10'0 0.0
2018-Jun-18 18:00N 38°42' W 009°10'0 0.0
2018-Jun-18 17:29N 38°42' W 009°10'0 0.0
2018-Jun-18 17:00N 38°42' W 009°10'0 0.0
2018-Jun-18 16:29N 38°42' W 009°10'0 0.0
2018-Jun-18 15:58N 38°42' W 009°10'0 0.0
2018-Jun-18 15:30N 38°42' W 009°10'0 0.0
2018-Jun-18 14:57N 38°42' W 009°10'0 0.0
2018-Jun-18 14:25N 38°42' W 009°10'0 0.0
2018-Jun-18 13:57N 38°42' W 009°10'0 0.0
2018-Jun-18 13:11N 38°42' W 009°10'0 0.0
2018-Jun-18 13:00N 38°42' W 009°10'0 0.0
2018-Jun-18 12:29N 38°42' W 009°10'0 0.0
2018-Jun-18 12:00N 38°42' W 009°10'0 0.0
2018-Jun-18 11:21N 38°42' W 009°10'0 0.0
2018-Jun-18 10:57N 38°42' W 009°10'0 0.0
2018-Jun-18 10:29N 38°42' W 009°10'0 0.0
2018-Jun-18 10:00N 38°42' W 009°10'0 0.0
2018-Jun-18 09:29N 38°42' W 009°10'0 0.0
2018-Jun-18 09:00N 38°42' W 009°10'0 0.0
2018-Jun-18 08:30N 38°42' W 009°10'0 0.0
2018-Jun-18 08:00N 38°42' W 009°10'0 0.0
2018-Jun-18 07:30N 38°42' W 009°10'0 0.0
2018-Jun-18 07:00N 38°42' W 009°10'2 3.6
2018-Jun-18 06:30N 38°41' W 009°11'0 0.7
2018-Jun-18 06:00N 38°41' W 009°12'2 4.0
2018-Jun-18 05:30N 38°42' W 009°10'0 0.3
2018-Jun-18 05:00N 38°42' W 009°10'0 0.0
2018-Jun-18 04:30N 38°42' W 009°10'0 0.0
2018-Jun-18 04:00N 38°42' W 009°10'0 0.0
2018-Jun-18 03:30N 38°42' W 009°10'0 0.0
2018-Jun-18 03:00N 38°42' W 009°10'0 0.0
2018-Jun-18 02:30N 38°42' W 009°10'0 0.0
2018-Jun-18 02:00N 38°42' W 009°10'0 0.0
2018-Jun-18 01:30N 38°42' W 009°10'0 0.0
2018-Jun-18 01:00N 38°42' W 009°10'0 0.0
2018-Jun-18 00:29N 38°42' W 009°10'0 0.0
2018-Jun-18 00:00N 38°42' W 009°10'0 0.0
2018-Jun-17 23:30N 38°42' W 009°10'0 0.0
2018-Jun-17 23:00N 38°42' W 009°10'0 0.0
2018-Jun-17 22:29N 38°42' W 009°10'0 0.0
2018-Jun-17 22:00N 38°42' W 009°10'0 0.0
2018-Jun-17 21:29N 38°42' W 009°10'0 0.0
2018-Jun-17 20:55N 38°42' W 009°10'0 0.0
2018-Jun-17 20:30N 38°42' W 009°10'0 0.0
2018-Jun-17 19:57N 38°42' W 009°10'0 0.0
2018-Jun-17 19:30N 38°42' W 009°10'0 0.0
2018-Jun-17 18:57N 38°42' W 009°10'0 0.0
2018-Jun-17 18:30N 38°42' W 009°10'0 0.0
2018-Jun-17 17:59N 38°42' W 009°10'0 0.0
2018-Jun-17 17:30N 38°42' W 009°10'0 0.0
2018-Jun-17 17:00N 38°42' W 009°10'0 0.0
2018-Jun-17 16:30N 38°42' W 009°10'0 0.0
2018-Jun-17 16:00N 38°42' W 009°10'0 0.0
2018-Jun-17 15:29N 38°42' W 009°10'2 4.0
2018-Jun-17 14:59N 38°40' W 009°09'1 2.1
2018-Jun-17 14:30N 38°41' W 009°08'1 2.1
2018-Jun-17 14:00N 38°41' W 009°09'1 1.8
2018-Jun-17 13:30N 38°42' W 009°10'0 0.0
2018-Jun-17 12:59N 38°42' W 009°10'0 0.0
2018-Jun-17 12:30N 38°42' W 009°10'0 0.0
2018-Jun-17 11:58N 38°42' W 009°10'0 0.0
2018-Jun-17 11:29N 38°42' W 009°10'0 0.0
2018-Jun-17 11:00N 38°42' W 009°10'0 0.0
2018-Jun-17 10:30N 38°42' W 009°10'0 0.0
2018-Jun-17 09:59N 38°42' W 009°10'0 0.0
2018-Jun-17 09:28N 38°42' W 009°10'0 0.0
2018-Jun-17 09:00N 38°42' W 009°10'0 0.0
2018-Jun-17 08:30N 38°42' W 009°10'0 0.0
2018-Jun-17 07:58N 38°42' W 009°10'0 0.0
2018-Jun-17 07:30N 38°42' W 009°10'0 0.0
2018-Jun-17 06:59N 38°42' W 009°10'0 0.0
2018-Jun-17 06:30N 38°42' W 009°10'0 0.0
2018-Jun-17 06:00N 38°42' W 009°10'0 0.0
2018-Jun-17 05:25N 38°42' W 009°10'0 0.0
2018-Jun-17 04:58N 38°42' W 009°10'0 0.0
2018-Jun-17 04:28N 38°42' W 009°10'0 0.0
2018-Jun-17 03:58N 38°42' W 009°10'0 0.0
2018-Jun-17 03:30N 38°42' W 009°10'0 0.0
2018-Jun-17 03:00N 38°42' W 009°10'0 0.0
2018-Jun-17 02:30N 38°42' W 009°10'0 0.0
2018-Jun-17 02:00N 38°42' W 009°10'0 0.0
2018-Jun-17 01:30N 38°42' W 009°10'0 0.0
2018-Jun-17 01:00N 38°42' W 009°10'0 0.0
2018-Jun-17 00:28N 38°42' W 009°10'0 0.0
2018-Jun-17 00:00N 38°42' W 009°10'0 0.0
2018-Jun-16 23:27N 38°42' W 009°10'0 0.0
2018-Jun-16 22:59N 38°42' W 009°10'0 0.0
2018-Jun-16 22:29N 38°42' W 009°10'0 0.0
2018-Jun-16 21:59N 38°42' W 009°10'0 0.0
2018-Jun-16 21:28N 38°42' W 009°10'0 0.0
2018-Jun-16 20:59N 38°42' W 009°10'0 0.0
2018-Jun-16 20:28N 38°42' W 009°10'0 0.0
2018-Jun-16 20:00N 38°42' W 009°10'0 0.0
2018-Jun-16 19:30N 38°42' W 009°10'0 0.0
2018-Jun-16 18:59N 38°42' W 009°10'0 0.0
2018-Jun-16 18:30N 38°42' W 009°10'0 0.0
2018-Jun-16 18:00N 38°42' W 009°10'0 0.7
2018-Jun-16 17:30N 38°42' W 009°09'1 2.6
2018-Jun-16 17:00N 38°43' W 009°08'1 1.5
2018-Jun-16 16:30N 38°42' W 009°08'1 2.8
2018-Jun-16 16:00N 38°42' W 009°10'0 0.0
2018-Jun-16 15:30N 38°42' W 009°10'0 0.0
2018-Jun-16 14:59N 38°42' W 009°10'0 0.0
2018-Jun-16 14:30N 38°42' W 009°10'0 0.0
2018-Jun-16 13:59N 38°42' W 009°10'0 0.0
2018-Jun-16 13:30N 38°42' W 009°10'0 0.0
2018-Jun-16 13:00N 38°42' W 009°10'0 0.0
2018-Jun-16 12:30N 38°42' W 009°10'0 0.0
2018-Jun-16 12:00N 38°42' W 009°10'0 0.0
2018-Jun-16 11:30N 38°42' W 009°10'0 0.0
2018-Jun-16 11:00N 38°42' W 009°10'1 1.4
2018-Jun-16 10:30N 38°41' W 009°10'2 3.2
2018-Jun-16 09:59N 38°41' W 009°12'1 2.2
2018-Jun-16 09:30N 38°41' W 009°13'3 6.5
2018-Jun-16 09:01N 38°42' W 009°09'0 0.3
2018-Jun-16 08:30N 38°42' W 009°10'0 0.0
2018-Jun-16 08:00N 38°42' W 009°10'0 0.0
2018-Jun-16 07:30N 38°42' W 009°10'0 0.0
2018-Jun-16 06:59N 38°42' W 009°10'0 0.0
2018-Jun-16 06:30N 38°42' W 009°10'0 0.0
2018-Jun-16 06:00N 38°42' W 009°10'0 0.4
2018-Jun-16 05:30N 38°42' W 009°09'4 7.3
2018-Jun-16 05:00N 38°41' W 009°14'0 1.0
2018-Jun-16 04:30N 38°41' W 009°14'1 2.5
2018-Jun-16 03:59N 38°41' W 009°13'3 5.8
2018-Jun-16 03:31N 38°42' W 009°10'0 0.2
2018-Jun-16 03:00N 38°42' W 009°10'0 0.0
2018-Jun-16 02:30N 38°42' W 009°10'0 0.0
2018-Jun-16 01:59N 38°42' W 009°10'0 0.0
2018-Jun-16 01:30N 38°42' W 009°10'0 0.0
2018-Jun-16 01:00N 38°42' W 009°10'0 0.0
2018-Jun-16 00:30N 38°42' W 009°10'0 0.0
2018-Jun-16 00:00N 38°42' W 009°10'0 0.0
2018-Jun-15 23:30N 38°42' W 009°10'0 0.0
2018-Jun-15 22:59N 38°42' W 009°10'0 0.0
2018-Jun-15 22:30N 38°42' W 009°10'0 0.0
2018-Jun-15 21:54N 38°42' W 009°10'1 3.2
2018-Jun-15 21:30N 38°41' W 009°11'0 0.8
2018-Jun-15 20:59N 38°41' W 009°11'0 0.0
2018-Jun-15 20:28N 38°41' W 009°11'0 0.0
2018-Jun-15 20:00N 38°41' W 009°11'0 0.0
2018-Jun-15 19:30N 38°41' W 009°11'0 0.0
2018-Jun-15 19:00N 38°41' W 009°11'0 0.1
2018-Jun-15 18:30N 38°41' W 009°11'0 0.2
2018-Jun-15 17:59N 38°41' W 009°11'0 0.4
2018-Jun-15 17:30N 38°41' W 009°11'1 2.2
2018-Jun-15 17:00N 38°42' W 009°10'1 1.3
2018-Jun-15 16:30N 38°42' W 009°10'0 0.0
2018-Jun-15 16:00N 38°42' W 009°10'0 0.0
2018-Jun-15 15:30N 38°42' W 009°10'3 6.4
2018-Jun-15 15:00N 38°41' W 009°13'1 1.5
2018-Jun-15 14:30N 38°41' W 009°14'0 0.3
2018-Jun-15 13:59N 38°41' W 009°14'2 5.0
2018-Jun-15 13:30N 38°41' W 009°11'1 2.9
2018-Jun-15 13:00N 38°42' W 009°10'0 0.0
2018-Jun-15 12:29N 38°42' W 009°10'0 0.0
2018-Jun-15 11:59N 38°42' W 009°10'0 0.0
2018-Jun-15 11:30N 38°42' W 009°10'0 0.0
2018-Jun-15 11:00N 38°42' W 009°10'0 0.0
2018-Jun-15 10:30N 38°42' W 009°10'0 0.0
2018-Jun-15 09:53N 38°42' W 009°10'0 0.0
2018-Jun-15 09:30N 38°42' W 009°10'0 0.0
2018-Jun-15 09:00N 38°42' W 009°10'0 0.0
2018-Jun-15 08:28N 38°42' W 009°10'0 0.0
2018-Jun-15 08:00N 38°42' W 009°10'0 0.0
2018-Jun-15 07:30N 38°42' W 009°10'0 0.0
2018-Jun-15 07:00N 38°42' W 009°10'0 0.0
2018-Jun-15 06:30N 38°42' W 009°10'0 0.0
2018-Jun-15 05:58N 38°42' W 009°10'0 0.0
2018-Jun-15 05:30N 38°42' W 009°10'0 0.0
2018-Jun-15 04:58N 38°42' W 009°10'0 0.0
2018-Jun-15 04:30N 38°42' W 009°10'0 0.0
2018-Jun-15 04:00N 38°42' W 009°10'0 0.0
2018-Jun-15 03:29N 38°42' W 009°10'0 0.0
2018-Jun-15 02:59N 38°42' W 009°10'0 0.0
2018-Jun-15 02:30N 38°42' W 009°10'0 0.0
2018-Jun-15 01:57N 38°42' W 009°10'0 0.0
2018-Jun-15 01:29N 38°42' W 009°10'0 0.0
2018-Jun-15 01:00N 38°42' W 009°10'0 0.0
2018-Jun-15 00:29N 38°42' W 009°10'0 0.0
2018-Jun-14 23:58N 38°42' W 009°10'0 0.0
2018-Jun-14 23:28N 38°42' W 009°10'0 0.0
2018-Jun-14 22:58N 38°42' W 009°10'0 0.0
2018-Jun-14 22:30N 38°42' W 009°10'0 0.0
2018-Jun-14 22:00N 38°42' W 009°10'0 0.0
2018-Jun-14 21:30N 38°42' W 009°10'0 0.0
2018-Jun-14 21:00N 38°42' W 009°10'0 0.0
2018-Jun-14 20:30N 38°42' W 009°10'0 0.0
2018-Jun-14 20:00N 38°42' W 009°10'0 0.0
2018-Jun-14 19:30N 38°42' W 009°10'0 0.0
2018-Jun-14 19:00N 38°42' W 009°10'0 0.0
2018-Jun-14 18:29N 38°42' W 009°10'0 0.0
2018-Jun-14 18:00N 38°42' W 009°10'0 0.0
2018-Jun-14 17:30N 38°42' W 009°10'0 0.0
2018-Jun-14 17:00N 38°42' W 009°10'0 0.0
2018-Jun-14 16:30N 38°42' W 009°10'0 0.0
2018-Jun-14 16:00N 38°42' W 009°10'0 0.0
2018-Jun-14 15:30N 38°42' W 009°10'0 0.0
2018-Jun-14 15:00N 38°42' W 009°10'0 0.0
2018-Jun-14 14:30N 38°42' W 009°10'0 0.0
2018-Jun-14 14:00N 38°42' W 009°10'0 0.0
2018-Jun-14 13:29N 38°42' W 009°10'0 0.0
2018-Jun-14 13:00N 38°42' W 009°10'0 0.0
2018-Jun-14 12:30N 38°42' W 009°10'0 0.0
2018-Jun-14 11:59N 38°42' W 009°10'0 0.0
2018-Jun-14 11:29N 38°42' W 009°10'0 1.0
2018-Jun-14 11:00N 38°42' W 009°10'1 2.1
2018-Jun-14 10:29N 38°41' W 009°11'1 1.8
2018-Jun-14 10:00N 38°42' W 009°11'0 0.1
2018-Jun-14 09:30N 38°42' W 009°11'0 0.1
2018-Jun-14 09:01N 38°42' W 009°11'1 1.7
2018-Jun-14 08:30N 38°42' W 009°09'0 0.3
2018-Jun-14 08:00N 38°42' W 009°10'0 0.0
2018-Jun-14 07:29N 38°42' W 009°10'0 0.0
2018-Jun-14 06:58N 38°42' W 009°10'0 0.0
2018-Jun-14 06:30N 38°42' W 009°10'1 2.0
2018-Jun-14 06:00N 38°42' W 009°08'1 2.0
2018-Jun-14 05:30N 38°43' W 009°07'1 2.7
2018-Jun-14 05:00N 38°42' W 009°09'1 1.3
2018-Jun-14 04:29N 38°42' W 009°10'0 0.0
2018-Jun-14 04:00N 38°42' W 009°10'0 0.0
2018-Jun-14 03:30N 38°42' W 009°10'0 0.0
2018-Jun-14 03:00N 38°42' W 009°10'0 0.0
2018-Jun-14 02:29N 38°42' W 009°10'0 0.0
2018-Jun-14 02:00N 38°42' W 009°10'0 0.0
2018-Jun-14 01:29N 38°42' W 009°10'0 0.0
2018-Jun-14 00:55N 38°42' W 009°10'0 0.0
2018-Jun-14 00:30N 38°42' W 009°10'0 0.0
2018-Jun-13 23:57N 38°42' W 009°10'0 0.0
2018-Jun-13 23:28N 38°42' W 009°10'0 0.0
2018-Jun-13 22:58N 38°42' W 009°10'0 0.0
2018-Jun-13 22:27N 38°42' W 009°10'0 0.0
2018-Jun-13 21:59N 38°42' W 009°10'0 0.0
2018-Jun-13 21:30N 38°42' W 009°10'0 0.0
2018-Jun-13 20:59N 38°42' W 009°10'0 0.0
2018-Jun-13 20:30N 38°42' W 009°10'0 0.0
2018-Jun-13 19:55N 38°42' W 009°10'0 0.0
2018-Jun-13 19:27N 38°42' W 009°10'0 0.0
2018-Jun-13 19:00N 38°42' W 009°10'0 0.0
2018-Jun-13 18:30N 38°42' W 009°10'1 1.0
2018-Jun-13 18:00N 38°42' W 009°10'1 1.0
2018-Jun-13 17:30N 38°42' W 009°10'0 0.0
2018-Jun-13 17:00N 38°42' W 009°10'0 0.0
2018-Jun-13 16:29N 38°42' W 009°10'0 0.0
2018-Jun-13 16:00N 38°42' W 009°10'0 0.0
2018-Jun-13 15:28N 38°42' W 009°10'0 0.0
2018-Jun-13 15:00N 38°42' W 009°10'0 0.0
2018-Jun-13 14:30N 38°42' W 009°10'0 0.0
2018-Jun-13 13:57N 38°42' W 009°10'0 0.0
2018-Jun-13 13:28N 38°42' W 009°10'0 0.0
2018-Jun-13 12:57N 38°42' W 009°10'0 0.0
2018-Jun-13 12:30N 38°42' W 009°10'0 0.0
2018-Jun-13 12:00N 38°42' W 009°10'0 0.0
2018-Jun-13 11:29N 38°42' W 009°10'0 0.0
2018-Jun-13 10:58N 38°42' W 009°10'0 0.0
2018-Jun-13 10:30N 38°42' W 009°10'0 0.0
2018-Jun-13 09:59N 38°42' W 009°10'0 0.0
2018-Jun-13 09:30N 38°42' W 009°10'  

Dump ship's entire track history